KMHL/MHL METAR and TAF weather

Enter ICAO airport designator
Station Type Date Time Source
KMHL METAR 2022/08/12 14:15 UTC NOAA

KMHL 121415Z AUTO 12008KT 10SM SCT009 23/21 A3020 RMK AO2


Station Type Date Time Source
KMHL Decoded METAR 2022/08/12 14:15 UTC NOAA

Station name not available
Aug 12, 2022 - 10:15 AM EDT / 2022.08.12 1415 UTC
Wind: from the ESE (120 degrees) at 9 MPH (8 KT):0
Visibility: 10 mile(s):0
Sky conditions: partly cloudy
Temperature: 73 F (23 C)
Dew Point: 69 F (21 C)
Relative Humidity: 88%
Pressure (altimeter): 30.2 in. Hg (1022 hPa)
ob: KMHL 121415Z AUTO 12008KT 10SM SCT009 23/21 A3020 RMK AO2
cycle: 14

Station Type Date Time Source
KMHL TAF UTC NOAA

Error!

Example: see airport list